createdAt,value
2023-08-06T00:00:28.917Z,59.1
2023-08-06T00:01:46.022Z,46.5
2023-08-06T00:03:03.126Z,50.2
2023-08-06T00:04:20.230Z,69.1
2023-08-06T00:05:37.335Z,61.2
2023-08-06T00:06:54.439Z,46.2
2023-08-06T00:08:11.543Z,44.6
2023-08-06T00:09:28.647Z,49.3
2023-08-06T00:10:45.751Z,44.7
2023-08-06T00:12:01.871Z,48.3
2023-08-06T00:13:18.975Z,45.1
2023-08-06T00:14:36.079Z,61
2023-08-06T00:15:53.183Z,50.1
2023-08-06T00:17:10.288Z,66
2023-08-06T00:18:27.393Z,58.6
2023-08-06T00:19:44.497Z,49.1
2023-08-06T00:21:01.601Z,47.6
2023-08-06T00:22:18.706Z,66.2
2023-08-06T00:23:35.810Z,45.1
2023-08-06T00:24:52.914Z,45.9
2023-08-06T00:26:10.019Z,51
2023-08-06T00:27:27.124Z,59.1
2023-08-06T00:28:43.244Z,47.6
2023-08-06T00:30:00.349Z,52.6
2023-08-06T00:31:17.453Z,53.9
2023-08-06T00:32:34.557Z,48
2023-08-06T00:33:51.662Z,47.8
2023-08-06T00:35:08.766Z,52.8
2023-08-06T00:36:25.871Z,46.7
2023-08-06T00:37:42.976Z,47.8
2023-08-06T00:39:00.080Z,60.2
2023-08-06T00:40:17.184Z,48.5
2023-08-06T00:41:34.288Z,53.1
2023-08-06T00:42:51.392Z,60.4
2023-08-06T00:44:08.496Z,60.7
2023-08-06T00:45:24.617Z,47.2
2023-08-06T00:46:41.721Z,45.1
2023-08-06T00:47:58.825Z,45.1
2023-08-06T00:49:15.930Z,43.9
2023-08-06T00:50:33.034Z,54.4
2023-08-06T00:51:50.139Z,56.2
2023-08-06T00:53:07.243Z,64.2
2023-08-06T00:54:24.348Z,58.6
2023-08-06T00:55:41.452Z,49.1
2023-08-06T00:56:58.556Z,45.6
2023-08-06T00:58:15.661Z,55.9
2023-08-06T00:59:32.765Z,44.6
2023-08-06T01:00:49.869Z,44.4
2023-08-06T01:02:05.990Z,55.9
2023-08-06T01:03:23.094Z,49.3
2023-08-06T01:04:40.199Z,46.4
2023-08-06T01:05:57.303Z,52.5
2023-08-06T01:07:14.407Z,60.7
2023-08-06T01:08:31.512Z,46.4
2023-08-06T01:09:47.632Z,47.6
2023-08-06T01:11:04.738Z,45.4
2023-08-06T01:12:21.842Z,45.7
2023-08-06T01:13:38.946Z,58.8
2023-08-06T01:14:56.050Z,45.2
2023-08-06T01:16:13.154Z,43.6
2023-08-06T01:17:30.259Z,45.1
2023-08-06T01:18:47.363Z,44.6
2023-08-06T01:20:04.468Z,44.1
2023-08-06T01:21:21.572Z,46.2
2023-08-06T01:22:38.677Z,54.1
2023-08-06T01:23:55.781Z,44.7
2023-08-06T01:25:12.885Z,61.8
2023-08-06T01:26:29.006Z,44.3
2023-08-06T01:27:46.110Z,63.8
2023-08-06T01:29:03.215Z,44.9
2023-08-06T01:30:20.320Z,44.3
2023-08-06T01:31:37.424Z,57.8
2023-08-06T01:32:54.528Z,49.9
2023-08-06T01:34:11.633Z,65
2023-08-06T01:35:28.737Z,50.5
2023-08-06T01:36:45.841Z,50.2
2023-08-06T01:38:02.946Z,43.6
2023-08-06T01:39:20.050Z,48.3
2023-08-06T01:40:37.154Z,43.1
2023-08-06T01:41:54.259Z,43.6
2023-08-06T01:43:10.379Z,43.9
2023-08-06T01:44:27.484Z,44.3
2023-08-06T01:45:44.588Z,47.3
2023-08-06T01:47:01.693Z,46
2023-08-06T01:48:18.797Z,56.7
2023-08-06T01:49:35.901Z,45.6
2023-08-06T01:50:53.005Z,44.3
2023-08-06T01:52:10.109Z,43.5
2023-08-06T01:53:27.215Z,45.1
2023-08-06T01:54:44.319Z,57.6
2023-08-06T01:56:01.423Z,45.4
2023-08-06T01:57:18.528Z,55.5
2023-08-06T01:58:35.632Z,42.2
2023-08-06T01:59:51.752Z,42.7
2023-08-06T02:01:08.857Z,43.9
2023-08-06T02:02:25.961Z,42.7
2023-08-06T02:03:43.065Z,44.3
2023-08-06T02:05:00.170Z,42.7
2023-08-06T02:06:17.274Z,42.8
2023-08-06T02:07:34.379Z,43.3
2023-08-06T02:08:51.483Z,42.7
2023-08-06T02:10:08.587Z,42.3
2023-08-06T02:11:25.692Z,45.1
2023-08-06T02:12:42.796Z,45.2
2023-08-06T02:13:59.901Z,65.5
2023-08-06T02:15:17.005Z,43.5
2023-08-06T02:16:33.125Z,44.3
2023-08-06T02:17:50.230Z,50.5
2023-08-06T02:19:07.334Z,42.7
2023-08-06T02:20:24.439Z,44.6
2023-08-06T02:21:41.543Z,46.5
2023-08-06T02:22:58.647Z,57
2023-08-06T02:24:15.752Z,46.4
2023-08-06T02:25:32.856Z,53
2023-08-06T02:26:49.960Z,58.4
2023-08-06T02:28:07.064Z,47.5
2023-08-06T02:29:24.168Z,42.7
2023-08-06T02:30:41.273Z,42.8
2023-08-06T02:31:58.377Z,43.1
2023-08-06T02:33:14.497Z,71.5
2023-08-06T02:34:31.601Z,62.8
2023-08-06T02:35:48.705Z,44.3
2023-08-06T02:37:05.810Z,46
2023-08-06T02:38:22.914Z,48
2023-08-06T02:39:40.018Z,43.3
2023-08-06T02:40:57.123Z,62
2023-08-06T02:42:14.228Z,54.9
2023-08-06T02:43:31.332Z,65.5
2023-08-06T02:44:48.436Z,46.5
2023-08-06T02:46:05.542Z,43.1
2023-08-06T02:47:22.646Z,47.5
2023-08-06T02:48:39.750Z,42.7
2023-08-06T02:49:55.871Z,45.2
2023-08-06T02:51:12.975Z,42.7
2023-08-06T02:52:30.080Z,43.5
2023-08-06T02:53:47.184Z,42.7
2023-08-06T02:55:04.288Z,44.6
2023-08-06T02:56:21.392Z,44.4
2023-08-06T02:57:38.497Z,43
2023-08-06T02:58:55.601Z,42.2
2023-08-06T03:00:12.704Z,57.2
2023-08-06T03:01:29.808Z,42.2
2023-08-06T03:02:46.913Z,42.7
2023-08-06T03:04:04.017Z,43.1
2023-08-06T03:05:21.121Z,43
2023-08-06T03:06:37.241Z,42.2
2023-08-06T03:07:54.345Z,42.7
2023-08-06T03:09:11.448Z,42.3
2023-08-06T03:10:28.552Z,45.4
2023-08-06T03:11:45.656Z,43.3
2023-08-06T03:13:02.760Z,42.8
2023-08-06T03:14:19.865Z,50.9
2023-08-06T03:15:36.969Z,43.8
2023-08-06T03:16:54.074Z,47
2023-08-06T03:18:11.178Z,43.5
2023-08-06T03:19:28.282Z,43.1
2023-08-06T03:20:45.386Z,43.1
2023-08-06T03:22:02.490Z,44.1
2023-08-06T03:23:18.611Z,44.1
2023-08-06T03:24:35.715Z,43.8
2023-08-06T03:25:52.820Z,60.5
2023-08-06T03:27:09.924Z,43
2023-08-06T03:28:27.028Z,42.7
2023-08-06T03:29:44.132Z,43.6
2023-08-06T03:31:01.237Z,43
2023-08-06T03:32:18.341Z,45.4
2023-08-06T03:33:35.445Z,42.8
2023-08-06T03:34:52.549Z,44.9
2023-08-06T03:36:09.653Z,46.5
2023-08-06T03:37:26.757Z,57.2
2023-08-06T03:38:43.861Z,43.8
2023-08-06T03:39:59.981Z,44.9
2023-08-06T03:41:17.085Z,62.6
2023-08-06T03:42:34.189Z,43.5
2023-08-06T03:43:51.293Z,50.5
2023-08-06T03:45:08.397Z,50.7
2023-08-06T03:46:25.501Z,44.7
2023-08-06T03:47:42.605Z,43.9
2023-08-06T03:48:59.709Z,59.9
2023-08-06T03:50:16.813Z,43.9
2023-08-06T03:51:33.917Z,43.3
2023-08-06T03:52:51.021Z,43
2023-08-06T03:54:08.126Z,43.6
2023-08-06T03:55:25.230Z,59.7
2023-08-06T03:56:41.351Z,52
2023-08-06T03:57:58.455Z,48.1
2023-08-06T03:59:15.560Z,44.3
2023-08-06T04:00:32.664Z,44.3
2023-08-06T04:01:49.768Z,43.1
2023-08-06T04:03:06.872Z,46.5
2023-08-06T04:04:23.977Z,54.7
2023-08-06T04:05:41.081Z,43
2023-08-06T04:06:58.186Z,44.1
2023-08-06T04:08:15.290Z,44.1
2023-08-06T04:09:32.395Z,47.6
2023-08-06T04:10:49.499Z,48.3
2023-08-06T04:12:06.603Z,58
2023-08-06T04:13:22.724Z,44.7
2023-08-06T04:14:39.828Z,68.8
2023-08-06T04:15:56.933Z,50.7
2023-08-06T04:17:14.037Z,45.1
2023-08-06T04:18:31.141Z,46.7
2023-08-06T04:19:48.245Z,71
2023-08-06T04:21:05.350Z,45.9
2023-08-06T04:22:22.454Z,43.1
2023-08-06T04:23:39.558Z,43.9
2023-08-06T04:24:56.663Z,44.6
2023-08-06T04:26:13.767Z,43.1
2023-08-06T04:27:30.871Z,43.9
2023-08-06T04:28:47.975Z,47.6
2023-08-06T04:30:04.095Z,45.7
2023-08-06T04:31:21.199Z,42.8
2023-08-06T04:32:38.304Z,44.6
2023-08-06T04:33:55.409Z,55.9
2023-08-06T04:35:12.513Z,44.1
2023-08-06T04:36:29.618Z,64.2
2023-08-06T04:37:46.722Z,43.8
2023-08-06T04:39:03.826Z,59.7
2023-08-06T04:40:20.930Z,52.5
2023-08-06T04:41:38.034Z,42.7
2023-08-06T04:42:55.139Z,43.6
2023-08-06T04:44:12.243Z,44.7
2023-08-06T04:45:29.347Z,42.7
2023-08-06T04:46:45.467Z,51.4
2023-08-06T04:48:02.572Z,49.9
2023-08-06T04:49:19.676Z,46.7
2023-08-06T04:50:36.779Z,46.2
2023-08-06T04:51:53.883Z,59.7
2023-08-06T04:53:10.987Z,56.5
2023-08-06T04:54:28.091Z,55.1
2023-08-06T04:55:45.195Z,44.1
2023-08-06T04:57:02.299Z,48.6
2023-08-06T04:58:19.403Z,55.1
2023-08-06T04:59:36.507Z,44.1
2023-08-06T05:00:53.612Z,45.2
2023-08-06T05:02:10.716Z,73.3
2023-08-06T05:03:26.836Z,67.3
2023-08-06T05:04:43.940Z,66.5
2023-08-06T05:06:01.045Z,44.6
2023-08-06T05:07:18.150Z,42.5
2023-08-06T05:08:35.254Z,43.1
2023-08-06T05:09:52.358Z,46
2023-08-06T05:11:09.462Z,60.9
2023-08-06T05:12:26.566Z,42.7
2023-08-06T05:13:43.670Z,43.1
2023-08-06T05:15:00.774Z,46.7
2023-08-06T05:16:17.879Z,58.1
2023-08-06T05:17:34.983Z,58.6
2023-08-06T05:18:52.087Z,48.5
2023-08-06T05:20:08.207Z,55.5
2023-08-06T05:21:25.312Z,49.3
2023-08-06T05:22:42.416Z,65.2
2023-08-06T05:23:59.518Z,52.3
2023-08-06T05:25:16.622Z,44.6
2023-08-06T05:26:33.726Z,56.5
2023-08-06T05:27:49.846Z,50.2
2023-08-06T05:29:06.950Z,60.7
2023-08-06T05:30:24.054Z,61.2
2023-08-06T05:31:41.158Z,54.3
2023-08-06T05:32:58.262Z,55.1
2023-08-06T05:34:15.366Z,53.4
2023-08-06T05:35:32.470Z,48.6
2023-08-06T05:36:49.574Z,48
2023-08-06T05:38:06.678Z,48
2023-08-06T05:39:23.780Z,66.5
2023-08-06T05:40:40.884Z,56.7
2023-08-06T05:41:57.988Z,48.3
2023-08-06T05:43:15.092Z,64.7
2023-08-06T05:44:31.212Z,44.7
2023-08-06T05:45:48.316Z,82.6
2023-08-06T05:47:05.420Z,81.8
2023-08-06T05:48:22.524Z,77.9
2023-08-06T05:49:39.627Z,83.3
2023-08-06T05:50:56.732Z,85.2
2023-08-06T05:52:13.836Z,60.9
2023-08-06T05:53:30.940Z,61.8
2023-08-06T05:54:48.043Z,52.6
2023-08-06T05:56:05.147Z,58.6
2023-08-06T05:57:22.251Z,61.3
2023-08-06T05:58:39.355Z,45.1
2023-08-06T05:59:56.459Z,42.7
2023-08-06T06:01:12.579Z,47
2023-08-06T06:02:29.683Z,55.2
2023-08-06T06:03:46.787Z,48.8
2023-08-06T06:05:03.891Z,61.3
2023-08-06T06:06:20.995Z,49.4
2023-08-06T06:07:38.099Z,53.9
2023-08-06T06:08:55.203Z,54.1
2023-08-06T06:10:12.307Z,51.5
2023-08-06T06:11:29.411Z,56
2023-08-06T06:12:46.515Z,55.1
2023-08-06T06:14:03.619Z,62.8
2023-08-06T06:15:20.723Z,48.1
2023-08-06T06:16:37.827Z,47.6
2023-08-06T06:17:53.947Z,54.6
2023-08-06T06:19:11.051Z,57.6
2023-08-06T06:20:28.154Z,53.4
2023-08-06T06:21:45.258Z,52
2023-08-06T06:23:02.362Z,65
2023-08-06T06:24:19.466Z,49.9
2023-08-06T06:25:36.570Z,52.3
2023-08-06T06:26:53.674Z,56
2023-08-06T06:28:10.778Z,53.3
2023-08-06T06:29:27.882Z,49.1
2023-08-06T06:30:44.986Z,60.2
2023-08-06T06:32:02.090Z,56.5
2023-08-06T06:33:19.193Z,54.7
2023-08-06T06:34:35.314Z,54.6
2023-08-06T06:35:52.418Z,57.8
2023-08-06T06:37:09.522Z,64.4
2023-08-06T06:38:26.626Z,63
2023-08-06T06:39:43.730Z,67.5
2023-08-06T06:41:00.834Z,56
2023-08-06T06:42:17.938Z,63.8
2023-08-06T06:43:35.042Z,54.6
2023-08-06T06:44:52.146Z,63.6
2023-08-06T06:46:09.251Z,68.1
2023-08-06T06:47:26.355Z,51.8
2023-08-06T06:48:43.459Z,55.9
2023-08-06T06:50:00.563Z,52
2023-08-06T06:51:16.683Z,57.8
2023-08-06T06:52:33.787Z,54.1
2023-08-06T06:53:50.892Z,48.5
2023-08-06T06:55:07.996Z,52.3
2023-08-06T06:56:25.100Z,52.6
2023-08-06T06:57:42.204Z,53.9
2023-08-06T06:58:59.308Z,55.1
2023-08-06T07:00:16.412Z,56.7
2023-08-06T07:01:33.516Z,64.2
2023-08-06T07:02:50.620Z,60.5
2023-08-06T07:04:07.724Z,52.8
2023-08-06T07:05:24.828Z,59.6
2023-08-06T07:06:41.932Z,58.4
2023-08-06T07:07:58.052Z,50.7
2023-08-06T07:09:15.157Z,52.8
2023-08-06T07:10:32.260Z,59.1
2023-08-06T07:11:49.364Z,56.5
2023-08-06T07:13:06.468Z,48
2023-08-06T07:14:23.572Z,66.5
2023-08-06T07:15:40.676Z,61.2
2023-08-06T07:16:57.780Z,73.3
2023-08-06T07:18:14.885Z,61.2
2023-08-06T07:19:31.989Z,64.1
2023-08-06T07:20:49.093Z,62.6
2023-08-06T07:22:06.197Z,45.9
2023-08-06T07:23:23.300Z,55.7
2023-08-06T07:24:39.420Z,68.6
2023-08-06T07:25:56.524Z,64.2
2023-08-06T07:27:13.628Z,67.5
2023-08-06T07:28:30.732Z,58.8
2023-08-06T07:29:47.836Z,60.5
2023-08-06T07:31:04.940Z,66
2023-08-06T07:32:22.044Z,69.7
2023-08-06T07:33:39.148Z,61.2
2023-08-06T07:34:56.252Z,48.3
2023-08-06T07:36:13.356Z,57.3
2023-08-06T07:37:30.459Z,53.8
2023-08-06T07:38:47.563Z,59.9
2023-08-06T07:40:04.667Z,61
2023-08-06T07:41:20.787Z,59.1
2023-08-06T07:42:37.892Z,54.4
2023-08-06T07:43:54.995Z,53.8
2023-08-06T07:45:12.099Z,60.1
2023-08-06T07:46:29.203Z,83.3
2023-08-06T07:47:46.307Z,79.5
2023-08-06T07:49:03.411Z,81.3
2023-08-06T07:50:20.515Z,81.3
2023-08-06T07:51:37.619Z,64.2
2023-08-06T07:52:54.723Z,56.8
2023-08-06T07:54:11.827Z,50.1
2023-08-06T07:55:28.931Z,59.1
2023-08-06T07:56:46.035Z,47.8
2023-08-06T07:58:02.155Z,58.3
2023-08-06T07:59:19.259Z,62.6
2023-08-06T08:00:36.363Z,62.3
2023-08-06T08:01:53.467Z,56.8
2023-08-06T08:03:10.571Z,48.1
2023-08-06T08:04:27.676Z,59.7
2023-08-06T08:05:44.780Z,58.6
2023-08-06T08:07:01.884Z,49.3
2023-08-06T08:08:18.987Z,64.1
2023-08-06T08:09:36.091Z,52.3
2023-08-06T08:10:53.195Z,61.5
2023-08-06T08:12:10.299Z,53.6
2023-08-06T08:13:27.403Z,56.5
2023-08-06T08:14:43.523Z,60.1
2023-08-06T08:16:00.627Z,61.2
2023-08-06T08:17:17.731Z,60.4
2023-08-06T08:18:34.835Z,63.4
2023-08-06T08:19:51.939Z,68.6
2023-08-06T08:21:09.043Z,45.1
2023-08-06T08:22:26.147Z,65.9
2023-08-06T08:23:43.251Z,59.2
2023-08-06T08:25:00.355Z,56.2
2023-08-06T08:26:17.459Z,57.3
2023-08-06T08:27:34.563Z,58.1
2023-08-06T08:28:51.667Z,61
2023-08-06T08:30:08.772Z,54.6
2023-08-06T08:31:24.893Z,51
2023-08-06T08:32:41.997Z,60.4
2023-08-06T08:33:59.100Z,55.1
2023-08-06T08:35:16.204Z,65.4
2023-08-06T08:36:33.307Z,67.3
2023-08-06T08:37:50.412Z,57.6
2023-08-06T08:39:07.517Z,58.3
2023-08-06T08:40:24.620Z,61
2023-08-06T08:41:41.724Z,61
2023-08-06T08:42:58.828Z,62
2023-08-06T08:44:15.932Z,60.4
2023-08-06T08:45:33.036Z,67
2023-08-06T08:46:50.140Z,59.7
2023-08-06T08:48:06.260Z,51.8
2023-08-06T08:49:23.365Z,50.2
2023-08-06T08:50:40.469Z,58.9
2023-08-06T08:51:57.573Z,61.8
2023-08-06T08:53:14.677Z,57.5
2023-08-06T08:54:31.781Z,64.2
2023-08-06T08:55:48.885Z,60.7
2023-08-06T08:57:05.989Z,57.2
2023-08-06T08:58:23.093Z,58.3
2023-08-06T08:59:40.198Z,58.4
2023-08-06T09:00:57.302Z,51.5
2023-08-06T09:02:14.406Z,58.8
2023-08-06T09:03:31.510Z,60.5
2023-08-06T09:04:47.630Z,61.2
2023-08-06T09:06:04.734Z,52.3
2023-08-06T09:07:21.838Z,56.7
2023-08-06T09:08:38.942Z,58.4
2023-08-06T09:09:56.046Z,61.2
2023-08-06T09:11:13.150Z,66
2023-08-06T09:12:30.253Z,59.7
2023-08-06T09:13:47.357Z,58.8
2023-08-06T09:15:04.461Z,63.8
2023-08-06T09:16:21.565Z,56.2
2023-08-06T09:17:38.669Z,60.1
2023-08-06T09:18:55.772Z,60.4
2023-08-06T09:20:12.876Z,65
2023-08-06T09:21:28.996Z,62
2023-08-06T09:22:46.100Z,59.4
2023-08-06T09:24:03.203Z,58.8
2023-08-06T09:25:20.307Z,56.2
2023-08-06T09:26:37.411Z,63.9
2023-08-06T09:27:54.515Z,56.2
2023-08-06T09:29:11.619Z,61.7
2023-08-06T09:30:28.723Z,57.6
2023-08-06T09:31:45.827Z,49.1
2023-08-06T09:33:02.931Z,57.3
2023-08-06T09:34:20.035Z,60.1
2023-08-06T09:35:37.140Z,62.5
2023-08-06T09:36:54.244Z,60.7
2023-08-06T09:38:10.364Z,60.2
2023-08-06T09:39:27.468Z,59.7
2023-08-06T09:40:44.572Z,60.7
2023-08-06T09:42:01.677Z,58.6
2023-08-06T09:43:18.782Z,64.4
2023-08-06T09:44:35.886Z,52.8
2023-08-06T09:45:52.007Z,65.2
2023-08-06T09:47:09.111Z,61.2
2023-08-06T09:48:26.215Z,60.2
2023-08-06T09:49:43.319Z,50.9
2023-08-06T09:51:00.423Z,62.8
2023-08-06T09:52:17.526Z,64.6
2023-08-06T09:53:34.631Z,58
2023-08-06T09:54:51.735Z,59.7
2023-08-06T09:56:08.840Z,60.7
2023-08-06T09:57:25.944Z,59.2
2023-08-06T09:58:43.048Z,62.1
2023-08-06T10:00:00.152Z,63
2023-08-06T10:01:17.256Z,63.9
2023-08-06T10:02:33.376Z,68.8
2023-08-06T10:03:50.480Z,65.5
2023-08-06T10:05:07.584Z,65.4
2023-08-06T10:06:24.688Z,53.6
2023-08-06T10:07:41.792Z,59.2
2023-08-06T10:08:58.896Z,58.4
2023-08-06T10:10:16.000Z,58.8
2023-08-06T10:11:33.104Z,53
2023-08-06T10:12:50.208Z,61.2
2023-08-06T10:14:07.312Z,51
2023-08-06T10:15:24.416Z,62.1
2023-08-06T10:16:41.520Z,66.2
2023-08-06T10:17:58.624Z,63.9
2023-08-06T10:19:14.744Z,64.6
2023-08-06T10:20:31.848Z,61.7
2023-08-06T10:21:48.952Z,65.4
2023-08-06T10:23:06.055Z,53.3
2023-08-06T10:24:23.159Z,61.2
2023-08-06T10:25:40.263Z,60.2
2023-08-06T10:26:57.367Z,60.5
2023-08-06T10:28:14.471Z,48.5
2023-08-06T10:29:31.575Z,63.4
2023-08-06T10:30:48.679Z,66.3
2023-08-06T10:32:05.783Z,62.3
2023-08-06T10:33:22.887Z,63
2023-08-06T10:34:39.991Z,63.6
2023-08-06T10:35:56.111Z,61.7
2023-08-06T10:37:13.215Z,51.7
2023-08-06T10:38:30.319Z,58.9
2023-08-06T10:39:47.423Z,58.1
2023-08-06T10:41:04.528Z,59.7
2023-08-06T10:42:21.632Z,56.3
2023-08-06T10:43:38.736Z,58.8
2023-08-06T10:44:55.840Z,62.1
2023-08-06T10:46:12.945Z,59.4
2023-08-06T10:47:30.050Z,61.7
2023-08-06T10:48:47.154Z,53.6
2023-08-06T10:50:04.258Z,58.4
2023-08-06T10:51:21.363Z,62.1
2023-08-06T10:52:37.484Z,52.6
2023-08-06T10:53:54.588Z,68.9
2023-08-06T10:55:11.693Z,61.7
2023-08-06T10:56:28.797Z,58.9
2023-08-06T10:57:45.903Z,65
2023-08-06T10:59:03.007Z,61.7
2023-08-06T11:00:20.111Z,56.3
2023-08-06T11:01:37.216Z,61.7
2023-08-06T11:02:54.320Z,61.7
2023-08-06T11:04:11.426Z,59.6
2023-08-06T11:05:28.530Z,52.6
2023-08-06T11:06:45.634Z,56.7
2023-08-06T11:08:02.738Z,67.3
2023-08-06T11:09:18.859Z,67.1
2023-08-06T11:10:35.963Z,59.6
2023-08-06T11:11:53.067Z,60.2
2023-08-06T11:13:10.172Z,50.1
2023-08-06T11:14:27.277Z,61.5
2023-08-06T11:15:44.381Z,60.7
2023-08-06T11:17:01.486Z,56.3
2023-08-06T11:18:18.590Z,54.1
2023-08-06T11:19:35.694Z,62.8
2023-08-06T11:20:52.799Z,71.7
2023-08-06T11:22:09.903Z,53
2023-08-06T11:23:27.007Z,63.9
2023-08-06T11:24:44.112Z,63.9
2023-08-06T11:26:00.232Z,72.3
2023-08-06T11:27:17.336Z,68.8
2023-08-06T11:28:34.440Z,64.6
2023-08-06T11:29:51.544Z,73.4
2023-08-06T11:31:08.648Z,61
2023-08-06T11:32:25.752Z,65.7
2023-08-06T11:33:42.856Z,68.6
2023-08-06T11:34:59.960Z,67.3
2023-08-06T11:36:17.064Z,61.2
2023-08-06T11:37:34.168Z,68.4
2023-08-06T11:38:51.272Z,70.4
2023-08-06T11:40:08.376Z,63.9
2023-08-06T11:41:25.479Z,62
2023-08-06T11:42:41.600Z,63.8
2023-08-06T11:43:58.704Z,66.2
2023-08-06T11:45:15.808Z,67
2023-08-06T11:46:32.912Z,66.5
2023-08-06T11:47:50.016Z,66.5
2023-08-06T11:49:07.121Z,68.1
2023-08-06T11:50:24.225Z,66.5
2023-08-06T11:51:41.328Z,70.5
2023-08-06T11:52:58.432Z,69.6
2023-08-06T11:54:15.536Z,60.9
2023-08-06T11:55:32.640Z,66.7
2023-08-06T11:56:49.744Z,65.2
2023-08-06T11:58:06.848Z,64.2
2023-08-06T11:59:22.968Z,60.9
2023-08-06T12:00:40.072Z,59.4
2023-08-06T12:01:57.176Z,70
2023-08-06T12:03:14.280Z,62.8
2023-08-06T12:04:31.384Z,67.9
2023-08-06T12:05:48.488Z,63.3
2023-08-06T12:07:05.593Z,66.5
2023-08-06T12:08:22.697Z,64.4
2023-08-06T12:09:39.801Z,72.1
2023-08-06T12:10:56.905Z,65
2023-08-06T12:12:14.009Z,68.8
2023-08-06T12:13:31.114Z,67.3
2023-08-06T12:14:48.218Z,61
2023-08-06T12:16:04.338Z,67.5
2023-08-06T12:17:21.442Z,64.9
2023-08-06T12:18:38.546Z,68.8
2023-08-06T12:19:55.650Z,68.8
2023-08-06T12:21:12.754Z,68.9
2023-08-06T12:22:29.858Z,61.7
2023-08-06T12:23:46.962Z,59.4
2023-08-06T12:25:04.066Z,67.6
2023-08-06T12:26:21.170Z,70.7
2023-08-06T12:27:38.274Z,68.9
2023-08-06T12:28:55.378Z,71.5
2023-08-06T12:30:12.482Z,71
2023-08-06T12:31:29.586Z,64.4
2023-08-06T12:32:45.706Z,66.5
2023-08-06T12:34:02.810Z,67.9
2023-08-06T12:35:19.914Z,62.8
2023-08-06T12:36:37.018Z,66.7
2023-08-06T12:37:54.122Z,67.1
2023-08-06T12:39:11.226Z,58.3
2023-08-06T12:40:28.330Z,70.4
2023-08-06T12:41:45.434Z,60.2
2023-08-06T12:43:02.539Z,67
2023-08-06T12:44:19.643Z,64.1
2023-08-06T12:45:36.747Z,77.3
2023-08-06T12:46:53.851Z,79.7
2023-08-06T12:48:10.955Z,70.4
2023-08-06T12:49:27.075Z,69.6
2023-08-06T12:50:44.179Z,73.4
2023-08-06T12:52:01.284Z,74.9
2023-08-06T12:53:18.388Z,72.8
2023-08-06T12:54:35.492Z,70
2023-08-06T12:55:52.596Z,66.5
2023-08-06T12:57:09.701Z,67.5
2023-08-06T12:58:26.805Z,66.8
2023-08-06T12:59:43.909Z,61.8
2023-08-06T13:01:01.013Z,62.3
2023-08-06T13:02:18.117Z,66.8
2023-08-06T13:03:35.222Z,67
2023-08-06T13:04:52.326Z,62.1
2023-08-06T13:06:08.446Z,60.2
2023-08-06T13:07:25.551Z,69.9
2023-08-06T13:08:42.655Z,68.9
2023-08-06T13:09:59.759Z,69.1
2023-08-06T13:11:16.863Z,70.5
2023-08-06T13:12:33.967Z,69.7
2023-08-06T13:13:51.071Z,68.3
2023-08-06T13:15:08.175Z,66.8
2023-08-06T13:16:25.280Z,65.7
2023-08-06T13:17:42.384Z,66.3
2023-08-06T13:18:59.488Z,67.5
2023-08-06T13:20:16.592Z,67.3
2023-08-06T13:21:33.696Z,64.2
2023-08-06T13:22:49.817Z,67
2023-08-06T13:24:06.921Z,55.4
2023-08-06T13:25:24.025Z,66.7
2023-08-06T13:26:41.129Z,65.4
2023-08-06T13:27:58.234Z,65.2
2023-08-06T13:29:15.338Z,63.4
2023-08-06T13:30:32.442Z,66
2023-08-06T13:31:49.546Z,68.9
2023-08-06T13:33:06.650Z,71.7
2023-08-06T13:34:23.755Z,58.1
2023-08-06T13:35:40.859Z,60.7
2023-08-06T13:36:57.963Z,55.5
2023-08-06T13:38:15.067Z,70.2
2023-08-06T13:39:31.188Z,50.1
2023-08-06T13:40:48.292Z,64.4
2023-08-06T13:42:05.396Z,64.7
2023-08-06T13:43:22.500Z,65.4
2023-08-06T13:44:39.604Z,58.8
2023-08-06T13:45:56.708Z,64.9
2023-08-06T13:47:13.813Z,62.1
2023-08-06T13:48:30.917Z,70
2023-08-06T13:49:48.021Z,65.7
2023-08-06T13:51:05.126Z,67.3
2023-08-06T13:52:22.230Z,63.3
2023-08-06T13:53:39.334Z,65.7
2023-08-06T13:54:56.438Z,63
2023-08-06T13:56:12.559Z,69.9
2023-08-06T13:57:29.663Z,62.1
2023-08-06T13:58:46.767Z,53
2023-08-06T14:00:03.871Z,80.4
2023-08-06T14:01:20.976Z,57.8
2023-08-06T14:02:38.080Z,61
2023-08-06T14:03:54.200Z,66
2023-08-06T14:05:11.304Z,67.3
2023-08-06T14:06:28.409Z,67.5
2023-08-06T14:07:45.513Z,67
2023-08-06T14:09:02.617Z,57.5
2023-08-06T14:10:19.721Z,59.1
2023-08-06T14:11:36.825Z,65.5
2023-08-06T14:12:53.930Z,68.1
2023-08-06T14:14:11.034Z,56.7
2023-08-06T14:15:28.138Z,56.5
2023-08-06T14:16:45.242Z,63.9
2023-08-06T14:18:02.346Z,64.6
2023-08-06T14:19:19.450Z,58.6
2023-08-06T14:20:35.571Z,64.2
2023-08-06T14:21:52.676Z,60.2
2023-08-06T14:23:09.780Z,68.4
2023-08-06T14:24:26.884Z,63.1
2023-08-06T14:25:43.988Z,65.7
2023-08-06T14:27:01.092Z,67.6
2023-08-06T14:28:18.197Z,65
2023-08-06T14:29:35.300Z,64.4
2023-08-06T14:30:52.404Z,60.4
2023-08-06T14:32:09.509Z,62.8
2023-08-06T14:33:26.613Z,65.2
2023-08-06T14:34:43.717Z,58.6
2023-08-06T14:36:00.821Z,63.8
2023-08-06T14:37:16.941Z,61
2023-08-06T14:38:34.046Z,71
2023-08-06T14:39:51.150Z,63.6
2023-08-06T14:41:08.254Z,61.8
2023-08-06T14:42:25.356Z,65
2023-08-06T14:43:42.460Z,67.1
2023-08-06T14:44:59.564Z,62
2023-08-06T14:46:16.669Z,65.2
2023-08-06T14:47:33.773Z,58.9
2023-08-06T14:48:50.878Z,64.9
2023-08-06T14:50:07.982Z,65.2
2023-08-06T14:51:25.086Z,68.1
2023-08-06T14:52:42.191Z,66.2
2023-08-06T14:53:58.311Z,63
2023-08-06T14:55:15.415Z,65.2
2023-08-06T14:56:32.520Z,62.6
2023-08-06T14:57:49.624Z,66
2023-08-06T14:59:06.728Z,67
2023-08-06T15:00:23.832Z,59.2
2023-08-06T15:01:40.936Z,60.1
2023-08-06T15:02:58.040Z,63.9
2023-08-06T15:04:15.144Z,65.4
2023-08-06T15:05:32.248Z,66.2
2023-08-06T15:06:49.352Z,62.6
2023-08-06T15:08:06.457Z,64.7
2023-08-06T15:09:23.561Z,64.6
2023-08-06T15:10:39.681Z,67
2023-08-06T15:11:56.785Z,67.3
2023-08-06T15:13:13.889Z,59.7
2023-08-06T15:14:30.993Z,62.6
2023-08-06T15:15:48.097Z,61.7
2023-08-06T15:17:05.201Z,61.5
2023-08-06T15:18:22.305Z,64.2
2023-08-06T15:19:39.409Z,64.6
2023-08-06T15:20:56.513Z,65
2023-08-06T15:22:13.616Z,64.9
2023-08-06T15:23:30.720Z,63
2023-08-06T15:24:47.824Z,68.8
2023-08-06T15:26:04.928Z,65.4
2023-08-06T15:27:21.048Z,59.2
2023-08-06T15:28:38.152Z,69.6
2023-08-06T15:29:55.256Z,67.9
2023-08-06T15:31:12.360Z,61.2
2023-08-06T15:32:29.464Z,66.3
2023-08-06T15:33:46.567Z,61.3
2023-08-06T15:35:03.671Z,60.5
2023-08-06T15:36:20.775Z,63
2023-08-06T15:37:37.879Z,61.2
2023-08-06T15:38:54.983Z,69.9
2023-08-06T15:40:12.087Z,63.4
2023-08-06T15:41:29.191Z,73.3
2023-08-06T15:42:46.295Z,58.1
2023-08-06T15:44:02.415Z,60.5
2023-08-06T15:45:19.519Z,59.2
2023-08-06T15:46:36.622Z,67.5
2023-08-06T15:47:53.726Z,57.6
2023-08-06T15:49:10.830Z,60.9
2023-08-06T15:50:27.934Z,67
2023-08-06T15:51:45.038Z,63.3
2023-08-06T15:53:02.142Z,63.1
2023-08-06T15:54:19.246Z,63.3
2023-08-06T15:55:36.351Z,68.8
2023-08-06T15:56:53.455Z,65
2023-08-06T15:58:10.558Z,69.6
2023-08-06T15:59:27.662Z,62
2023-08-06T16:00:43.782Z,63.6
2023-08-06T16:02:00.886Z,74.9
2023-08-06T16:03:17.990Z,67.8
2023-08-06T16:04:35.094Z,65.5
2023-08-06T16:05:52.198Z,60.7
2023-08-06T16:07:09.302Z,63.6
2023-08-06T16:08:26.406Z,61.8
2023-08-06T16:09:43.509Z,65.7
2023-08-06T16:11:00.613Z,63
2023-08-06T16:12:17.717Z,66.8
2023-08-06T16:13:34.821Z,63.4
2023-08-06T16:14:51.925Z,65
2023-08-06T16:16:09.029Z,61.5
2023-08-06T16:17:25.149Z,63.3
2023-08-06T16:18:42.253Z,67.9
2023-08-06T16:19:59.357Z,59.4
2023-08-06T16:21:16.460Z,65.7
2023-08-06T16:22:33.564Z,65
2023-08-06T16:23:50.668Z,67.9
2023-08-06T16:25:07.773Z,59.9
2023-08-06T16:26:24.877Z,65.7
2023-08-06T16:27:41.981Z,60.7
2023-08-06T16:28:59.084Z,66.5
2023-08-06T16:30:16.188Z,65.2
2023-08-06T16:31:33.292Z,60.4
2023-08-06T16:32:50.396Z,64.4
2023-08-06T16:34:06.516Z,65.5
2023-08-06T16:35:23.620Z,63.9
2023-08-06T16:36:40.724Z,67.3
2023-08-06T16:37:57.828Z,67.8
2023-08-06T16:39:14.932Z,67
2023-08-06T16:40:32.036Z,72.1
2023-08-06T16:41:49.140Z,56.7
2023-08-06T16:43:06.245Z,60.2
2023-08-06T16:44:23.349Z,64.1
2023-08-06T16:45:40.453Z,70.2
2023-08-06T16:46:57.557Z,84.2
2023-08-06T16:48:14.661Z,89.5
2023-08-06T16:49:31.764Z,82.1
2023-08-06T16:50:47.884Z,87.9
2023-08-06T16:52:04.988Z,56.5
2023-08-06T16:53:22.092Z,61.5
2023-08-06T16:54:39.196Z,58.9
2023-08-06T16:55:56.299Z,60.9
2023-08-06T16:57:13.403Z,62.1
2023-08-06T16:58:30.507Z,62.1
2023-08-06T16:59:47.612Z,55.5
2023-08-06T17:01:04.717Z,63.9
2023-08-06T17:02:21.820Z,62.6
2023-08-06T17:03:38.924Z,68.6
2023-08-06T17:04:56.028Z,64.2
2023-08-06T17:06:13.132Z,55.1
2023-08-06T17:07:29.252Z,58.8
2023-08-06T17:08:46.356Z,58.9
2023-08-06T17:10:03.459Z,59.7
2023-08-06T17:11:20.564Z,57.2
2023-08-06T17:12:37.668Z,63